sensor_id;sensor_type;location;lat;lon;timestamp;P1;durP1;ratioP1;P2;durP2;ratioP2
1569;SDS011;778;50.120;8.698;2022-10-16T03:00:18;2.40;;;1.30;;
1569;SDS011;778;50.120;8.698;2022-10-16T03:02:46;1.23;;;1.13;;
1569;SDS011;778;50.120;8.698;2022-10-16T03:05:15;3.20;;;1.30;;
1569;SDS011;778;50.120;8.698;2022-10-16T03:07:43;1.70;;;1.07;;
1569;SDS011;778;50.120;8.698;2022-10-16T03:10:11;3.77;;;1.40;;
1569;SDS011;778;50.120;8.698;2022-10-16T03:12:40;3.10;;;1.60;;
1569;SDS011;778;50.120;8.698;2022-10-16T03:15:09;1.53;;;1.20;;
1569;SDS011;778;50.120;8.698;2022-10-16T03:17:39;2.57;;;1.53;;
1569;SDS011;778;50.120;8.698;2022-10-16T03:20:07;1.30;;;1.20;;
1569;SDS011;778;50.120;8.698;2022-10-16T03:22:36;3.03;;;1.07;;
1569;SDS011;778;50.120;8.698;2022-10-16T03:25:05;1.00;;;1.00;;
1569;SDS011;778;50.120;8.698;2022-10-16T03:27:34;1.80;;;1.20;;
1569;SDS011;778;50.120;8.698;2022-10-16T03:30:03;1.30;;;1.20;;
1569;SDS011;778;50.120;8.698;2022-10-16T03:32:33;4.50;;;1.30;;
1569;SDS011;778;50.120;8.698;2022-10-16T03:35:07;1.60;;;1.50;;
1569;SDS011;778;50.120;8.698;2022-10-16T03:37:36;4.03;;;1.33;;
1569;SDS011;778;50.120;8.698;2022-10-16T03:40:05;1.33;;;1.23;;
1569;SDS011;778;50.120;8.698;2022-10-16T03:42:34;1.53;;;1.30;;
1569;SDS011;778;50.120;8.698;2022-10-16T03:45:03;3.20;;;1.17;;
1569;SDS011;778;50.120;8.698;2022-10-16T03:47:32;4.10;;;1.43;;
1569;SDS011;778;50.120;8.698;2022-10-16T03:50:01;1.40;;;1.30;;
1569;SDS011;778;50.120;8.698;2022-10-16T03:52:32;1.37;;;1.30;;
1569;SDS011;778;50.120;8.698;2022-10-16T03:55:00;1.70;;;1.37;;
1569;SDS011;778;50.120;8.698;2022-10-16T03:57:29;1.40;;;1.30;;
1569;SDS011;778;50.120;8.698;2022-10-16T03:59:57;1.00;;;1.00;;
1569;SDS011;778;50.120;8.698;2022-10-16T04:02:25;2.77;;;1.63;;
1569;SDS011;778;50.120;8.698;2022-10-16T04:04:54;2.03;;;1.63;;
1569;SDS011;778;50.120;8.698;2022-10-16T04:07:22;5.50;;;4.00;;
1569;SDS011;778;50.120;8.698;2022-10-16T04:09:52;5.53;;;1.57;;
1569;SDS011;778;50.120;8.698;2022-10-16T04:12:21;1.50;;;1.40;;
1569;SDS011;778;50.120;8.698;2022-10-16T04:14:49;1.80;;;1.70;;
1569;SDS011;778;50.120;8.698;2022-10-16T04:17:18;2.37;;;1.40;;
1569;SDS011;778;50.120;8.698;2022-10-16T04:19:46;2.70;;;1.40;;
1569;SDS011;778;50.120;8.698;2022-10-16T04:22:15;6.93;;;1.60;;
1569;SDS011;778;50.120;8.698;2022-10-16T04:24:43;1.83;;;1.67;;
1569;SDS011;778;50.120;8.698;2022-10-16T04:27:13;1.80;;;1.60;;
1569;SDS011;778;50.120;8.698;2022-10-16T04:29:41;1.47;;;1.37;;
1569;SDS011;778;50.120;8.698;2022-10-16T04:32:09;1.50;;;1.40;;
1569;SDS011;778;50.120;8.698;2022-10-16T04:34:38;2.50;;;1.93;;
1569;SDS011;778;50.120;8.698;2022-10-16T04:37:07;7.70;;;1.60;;
1569;SDS011;778;50.120;8.698;2022-10-16T04:39:35;4.80;;;2.03;;
1569;SDS011;778;50.120;8.698;2022-10-16T04:42:04;1.53;;;1.43;;
1569;SDS011;778;50.120;8.698;2022-10-16T04:44:35;1.60;;;1.50;;
1569;SDS011;778;50.120;8.698;2022-10-16T04:47:03;2.73;;;1.60;;
1569;SDS011;778;50.120;8.698;2022-10-16T04:49:32;2.50;;;1.77;;
1569;SDS011;778;50.120;8.698;2022-10-16T04:52:00;3.03;;;2.00;;
1569;SDS011;778;50.120;8.698;2022-10-16T04:54:28;2.20;;;1.80;;
1569;SDS011;778;50.120;8.698;2022-10-16T04:56:57;4.00;;;1.70;;
1569;SDS011;778;50.120;8.698;2022-10-16T04:59:25;1.73;;;1.63;;
1569;SDS011;778;50.120;8.698;2022-10-16T05:01:55;3.50;;;1.83;;
1569;SDS011;778;50.120;8.698;2022-10-16T05:04:23;2.17;;;1.70;;
1569;SDS011;778;50.120;8.698;2022-10-16T05:06:52;2.40;;;2.13;;
1569;SDS011;778;50.120;8.698;2022-10-16T05:09:20;2.10;;;1.70;;
1569;SDS011;778;50.120;8.698;2022-10-16T05:11:48;2.37;;;2.23;;
1569;SDS011;778;50.120;8.698;2022-10-16T05:14:17;4.20;;;1.90;;
1569;SDS011;778;50.120;8.698;2022-10-16T05:16:45;1.90;;;1.80;;
1569;SDS011;778;50.120;8.698;2022-10-16T05:19:16;3.20;;;1.80;;
1569;SDS011;778;50.120;8.698;2022-10-16T05:21:53;2.60;;;2.30;;
1569;SDS011;778;50.120;8.698;2022-10-16T05:24:22;3.17;;;2.47;;
1569;SDS011;778;50.120;8.698;2022-10-16T05:26:50;1.90;;;1.80;;
1569;SDS011;778;50.120;8.698;2022-10-16T05:29:19;1.77;;;1.67;;
1569;SDS011;778;50.120;8.698;2022-10-16T05:31:49;2.00;;;1.90;;
1569;SDS011;778;50.120;8.698;2022-10-16T05:34:20;1.57;;;1.47;;
1569;SDS011;778;50.120;8.698;2022-10-16T05:36:49;4.70;;;1.90;;
1569;SDS011;778;50.120;8.698;2022-10-16T05:39:17;1.93;;;1.73;;
1569;SDS011;778;50.120;8.698;2022-10-16T05:41:46;2.50;;;1.53;;
1569;SDS011;778;50.120;8.698;2022-10-16T05:44:18;2.20;;;1.90;;
1569;SDS011;778;50.120;8.698;2022-10-16T05:46:47;2.20;;;1.40;;
1569;SDS011;778;50.120;8.698;2022-10-16T05:49:15;2.43;;;2.23;;
1569;SDS011;778;50.120;8.698;2022-10-16T05:51:45;3.90;;;2.03;;
1569;SDS011;778;50.120;8.698;2022-10-16T05:54:14;1.77;;;1.67;;
1569;SDS011;778;50.120;8.698;2022-10-16T05:56:42;1.93;;;1.80;;
1569;SDS011;778;50.120;8.698;2022-10-16T05:59:10;2.27;;;2.07;;
1569;SDS011;778;50.120;8.698;2022-10-16T06:01:39;3.17;;;2.50;;
1569;SDS011;778;50.120;8.698;2022-10-16T06:04:07;2.57;;;2.43;;
1569;SDS011;778;50.120;8.698;2022-10-16T06:06:41;4.33;;;2.03;;
1569;SDS011;778;50.120;8.698;2022-10-16T06:09:12;1.93;;;1.83;;
1569;SDS011;778;50.120;8.698;2022-10-16T06:11:40;3.17;;;2.40;;
1569;SDS011;778;50.120;8.698;2022-10-16T06:14:08;2.13;;;1.80;;
1569;SDS011;778;50.120;8.698;2022-10-16T06:16:37;2.60;;;2.10;;
1569;SDS011;778;50.120;8.698;2022-10-16T06:19:06;3.83;;;2.13;;
1569;SDS011;778;50.120;8.698;2022-10-16T06:21:35;2.07;;;1.97;;
1569;SDS011;778;50.120;8.698;2022-10-16T06:24:04;2.07;;;1.97;;
1569;SDS011;778;50.120;8.698;2022-10-16T06:26:33;2.13;;;2.00;;
1569;SDS011;778;50.120;8.698;2022-10-16T06:29:02;2.37;;;2.17;;
1569;SDS011;778;50.120;8.698;2022-10-16T06:31:31;2.10;;;1.90;;
1569;SDS011;778;50.120;8.698;2022-10-16T06:34:00;3.10;;;2.80;;
1569;SDS011;778;50.120;8.698;2022-10-16T06:36:31;3.13;;;2.63;;
1569;SDS011;778;50.120;8.698;2022-10-16T06:38:59;4.53;;;2.60;;
1569;SDS011;778;50.120;8.698;2022-10-16T06:41:27;3.27;;;2.97;;
1569;SDS011;778;50.120;8.698;2022-10-16T06:44:04;4.00;;;3.60;;
1569;SDS011;778;50.120;8.698;2022-10-16T06:46:33;5.90;;;4.20;;
1569;SDS011;778;50.120;8.698;2022-10-16T06:49:02;5.20;;;4.73;;
1569;SDS011;778;50.120;8.698;2022-10-16T06:51:30;5.80;;;5.30;;
1569;SDS011;778;50.120;8.698;2022-10-16T06:54:05;15.80;;;6.70;;
1569;SDS011;778;50.120;8.698;2022-10-16T06:56:35;6.90;;;6.20;;
1569;SDS011;778;50.120;8.698;2022-10-16T06:59:05;7.47;;;6.70;;
1569;SDS011;778;50.120;8.698;2022-10-16T07:01:33;7.83;;;7.07;;
1569;SDS011;778;50.120;8.698;2022-10-16T07:04:02;8.03;;;7.23;;
1569;SDS011;778;50.120;8.698;2022-10-16T07:06:31;7.90;;;7.20;;
1569;SDS011;778;50.120;8.698;2022-10-16T07:09:03;9.20;;;8.40;;
1569;SDS011;778;50.120;8.698;2022-10-16T07:11:33;9.50;;;8.50;;
1569;SDS011;778;50.120;8.698;2022-10-16T07:14:05;11.00;;;7.93;;
1569;SDS011;778;50.120;8.698;2022-10-16T07:16:40;10.70;;;7.30;;
1569;SDS011;778;50.120;8.698;2022-10-16T07:19:08;9.40;;;8.40;;
1569;SDS011;778;50.120;8.698;2022-10-16T07:21:38;15.20;;;7.80;;
1569;SDS011;778;50.120;8.698;2022-10-16T07:24:09;14.33;;;7.50;;
1569;SDS011;778;50.120;8.698;2022-10-16T07:26:43;7.70;;;6.90;;
1569;SDS011;778;50.120;8.698;2022-10-16T07:29:14;6.77;;;6.20;;
1569;SDS011;778;50.120;8.698;2022-10-16T07:31:45;6.80;;;6.30;;
1569;SDS011;778;50.120;8.698;2022-10-16T07:34:15;7.10;;;6.50;;
1569;SDS011;778;50.120;8.698;2022-10-16T07:36:47;6.90;;;6.23;;
1569;SDS011;778;50.120;8.698;2022-10-16T07:39:16;5.80;;;5.27;;
1569;SDS011;778;50.120;8.698;2022-10-16T07:41:45;7.47;;;5.00;;
1569;SDS011;778;50.120;8.698;2022-10-16T07:44:15;6.00;;;5.23;;
1569;SDS011;778;50.120;8.698;2022-10-16T07:46:43;8.10;;;5.13;;
1569;SDS011;778;50.120;8.698;2022-10-16T07:49:11;5.93;;;5.53;;
1569;SDS011;778;50.120;8.698;2022-10-16T07:51:40;6.23;;;5.63;;
1569;SDS011;778;50.120;8.698;2022-10-16T07:54:08;6.10;;;5.50;;
1569;SDS011;778;50.120;8.698;2022-10-16T07:56:37;6.50;;;5.90;;
1569;SDS011;778;50.120;8.698;2022-10-16T07:59:09;7.23;;;4.77;;
1569;SDS011;778;50.120;8.698;2022-10-16T08:01:39;5.00;;;4.60;;
1569;SDS011;778;50.120;8.698;2022-10-16T08:04:09;4.90;;;4.30;;
1569;SDS011;778;50.120;8.698;2022-10-16T08:06:39;7.47;;;5.00;;
1569;SDS011;778;50.120;8.698;2022-10-16T08:09:08;8.53;;;4.57;;
1569;SDS011;778;50.120;8.698;2022-10-16T08:11:37;10.20;;;5.20;;
1569;SDS011;778;50.120;8.698;2022-10-16T08:14:05;5.60;;;4.27;;
1569;SDS011;778;50.120;8.698;2022-10-16T08:16:33;7.27;;;4.60;;
1569;SDS011;778;50.120;8.698;2022-10-16T08:19:03;10.17;;;5.53;;
1569;SDS011;778;50.120;8.698;2022-10-16T08:21:31;4.90;;;4.40;;
1569;SDS011;778;50.120;8.698;2022-10-16T08:24:00;9.40;;;5.30;;
1569;SDS011;778;50.120;8.698;2022-10-16T08:26:28;6.23;;;5.60;;
1569;SDS011;778;50.120;8.698;2022-10-16T08:28:57;5.67;;;4.87;;
1569;SDS011;778;50.120;8.698;2022-10-16T08:31:25;5.87;;;5.20;;
1569;SDS011;778;50.120;8.698;2022-10-16T08:33:54;5.70;;;5.10;;
1569;SDS011;778;50.120;8.698;2022-10-16T08:36:23;10.43;;;5.40;;
1569;SDS011;778;50.120;8.698;2022-10-16T08:38:52;5.77;;;5.20;;
1569;SDS011;778;50.120;8.698;2022-10-16T08:47:45;6.63;;;6.03;;
1569;SDS011;778;50.120;8.698;2022-10-16T08:50:24;7.63;;;6.60;;
1569;SDS011;778;50.120;8.698;2022-10-16T08:52:56;7.13;;;6.43;;
1569;SDS011;778;50.120;8.698;2022-10-16T08:55:29;6.20;;;5.60;;
1569;SDS011;778;50.120;8.698;2022-10-16T08:58:01;6.00;;;5.50;;
1569;SDS011;778;50.120;8.698;2022-10-16T09:00:32;7.33;;;6.50;;
1569;SDS011;778;50.120;8.698;2022-10-16T09:03:04;6.93;;;6.30;;
1569;SDS011;778;50.120;8.698;2022-10-16T09:05:48;7.80;;;7.07;;
1569;SDS011;778;50.120;8.698;2022-10-16T09:08:33;7.13;;;6.63;;
1569;SDS011;778;50.120;8.698;2022-10-16T09:11:14;7.73;;;6.93;;
1569;SDS011;778;50.120;8.698;2022-10-16T09:14:03;6.97;;;6.47;;
1569;SDS011;778;50.120;8.698;2022-10-16T09:16:44;7.30;;;6.70;;
1569;SDS011;778;50.120;8.698;2022-10-16T09:19:19;7.33;;;6.73;;
1569;SDS011;778;50.120;8.698;2022-10-16T09:21:54;9.63;;;6.23;;
1569;SDS011;778;50.120;8.698;2022-10-16T09:24:27;8.03;;;7.17;;
1569;SDS011;778;50.120;8.698;2022-10-16T09:26:55;8.20;;;7.50;;
1569;SDS011;778;50.120;8.698;2022-10-16T09:29:24;9.70;;;8.80;;
1569;SDS011;778;50.120;8.698;2022-10-16T09:31:52;11.67;;;10.33;;
1569;SDS011;778;50.120;8.698;2022-10-16T09:34:24;11.53;;;9.20;;
1569;SDS011;778;50.120;8.698;2022-10-16T09:36:58;10.03;;;9.23;;
1569;SDS011;778;50.120;8.698;2022-10-16T09:39:41;11.60;;;10.50;;
1569;SDS011;778;50.120;8.698;2022-10-16T09:42:14;13.10;;;11.80;;
1569;SDS011;778;50.120;8.698;2022-10-16T09:44:47;13.37;;;11.80;;
1569;SDS011;778;50.120;8.698;2022-10-16T09:47:18;13.47;;;12.30;;
1569;SDS011;778;50.120;8.698;2022-10-16T09:49:52;12.70;;;11.40;;
1569;SDS011;778;50.120;8.698;2022-10-16T09:52:24;12.40;;;11.40;;
1569;SDS011;778;50.120;8.698;2022-10-16T09:54:55;11.93;;;10.80;;
1569;SDS011;778;50.120;8.698;2022-10-16T09:57:25;14.77;;;11.40;;
1569;SDS011;778;50.120;8.698;2022-10-16T09:59:56;10.90;;;9.90;;
1569;SDS011;778;50.120;8.698;2022-10-16T10:02:27;11.73;;;10.63;;
1569;SDS011;778;50.120;8.698;2022-10-16T10:04:58;11.07;;;10.13;;
1569;SDS011;778;50.120;8.698;2022-10-16T10:07:28;11.70;;;10.50;;
1569;SDS011;778;50.120;8.698;2022-10-16T10:10:03;12.30;;;10.47;;
1569;SDS011;778;50.120;8.698;2022-10-16T10:12:33;12.63;;;11.43;;
1569;SDS011;778;50.120;8.698;2022-10-16T10:15:04;10.90;;;9.90;;
1569;SDS011;778;50.120;8.698;2022-10-16T10:17:44;12.50;;;11.23;;
1569;SDS011;778;50.120;8.698;2022-10-16T10:20:25;12.40;;;11.33;;
1569;SDS011;778;50.120;8.698;2022-10-16T10:22:55;10.63;;;9.73;;
1569;SDS011;778;50.120;8.698;2022-10-16T10:25:29;10.67;;;9.83;;
1569;SDS011;778;50.120;8.698;2022-10-16T10:31:13;8.80;;;8.17;;
1569;SDS011;778;50.120;8.698;2022-10-16T10:33:50;13.13;;;8.20;;
1569;SDS011;778;50.120;8.698;2022-10-16T10:36:28;8.87;;;7.97;;
1569;SDS011;778;50.120;8.698;2022-10-16T10:39:01;8.27;;;7.50;;
1569;SDS011;778;50.120;8.698;2022-10-16T10:44:51;5.30;;;4.80;;
1569;SDS011;778;50.120;8.698;2022-10-16T10:47:35;5.03;;;4.63;;
1569;SDS011;778;50.120;8.698;2022-10-16T10:50:17;5.40;;;4.77;;
1569;SDS011;778;50.120;8.698;2022-10-16T10:53:03;4.57;;;4.17;;
1569;SDS011;778;50.120;8.698;2022-10-16T10:55:44;5.03;;;4.73;;
1569;SDS011;778;50.120;8.698;2022-10-16T10:58:23;6.80;;;6.20;;
1569;SDS011;778;50.120;8.698;2022-10-16T11:01:45;8.47;;;7.77;;
1569;SDS011;778;50.120;8.698;2022-10-16T11:04:32;7.57;;;7.07;;
1569;SDS011;778;50.120;8.698;2022-10-16T11:07:13;10.47;;;9.67;;
1569;SDS011;778;50.120;8.698;2022-10-16T11:09:47;13.67;;;9.47;;
1569;SDS011;778;50.120;8.698;2022-10-16T11:12:21;9.57;;;8.87;;
1569;SDS011;778;50.120;8.698;2022-10-16T11:14:56;10.87;;;9.87;;
1569;SDS011;778;50.120;8.698;2022-10-16T11:17:33;10.50;;;8.70;;
1569;SDS011;778;50.120;8.698;2022-10-16T11:20:11;9.40;;;8.70;;
1569;SDS011;778;50.120;8.698;2022-10-16T11:22:45;9.87;;;9.07;;
1569;SDS011;778;50.120;8.698;2022-10-16T11:25:18;8.50;;;7.90;;
1569;SDS011;778;50.120;8.698;2022-10-16T11:27:51;10.00;;;8.60;;
1569;SDS011;778;50.120;8.698;2022-10-16T11:30:27;9.93;;;9.00;;
1569;SDS011;778;50.120;8.698;2022-10-16T11:33:04;8.43;;;7.57;;
1569;SDS011;778;50.120;8.698;2022-10-16T11:35:53;7.73;;;7.13;;
1569;SDS011;778;50.120;8.698;2022-10-16T11:38:29;7.60;;;6.53;;
1569;SDS011;778;50.120;8.698;2022-10-16T11:41:03;7.50;;;7.00;;
1569;SDS011;778;50.120;8.698;2022-10-16T11:43:43;9.50;;;8.60;;
1569;SDS011;778;50.120;8.698;2022-10-16T11:46:20;8.10;;;6.80;;
1569;SDS011;778;50.120;8.698;2022-10-16T11:48:54;6.80;;;6.27;;
1569;SDS011;778;50.120;8.698;2022-10-16T11:51:33;7.30;;;6.70;;
1569;SDS011;778;50.120;8.698;2022-10-16T11:54:08;6.70;;;6.20;;
1569;SDS011;778;50.120;8.698;2022-10-16T11:56:48;9.00;;;6.80;;
1569;SDS011;778;50.120;8.698;2022-10-16T11:59:22;7.20;;;6.70;;
